Time;durP1;ratioP1;P1;durP2;ratioP2;P2;SDS_P1;SDS_P2;PMS_P1;PMS_P2;Temp;Humidity;BMP_temperature;BMP_pressure;BME280_temperature;BME280_humidity;BME280_pressure;Samples;Min_cycle;Max_cycle;Signal;HPM_P1;HPM_P2
2022/07/05 00:01:02;;;;;;;4.10;2.53;;;13.50;99.90;;;;;;5089933;28;20361;-83
2022/07/05 00:03:28;;;;;;;3.17;2.63;;;13.50;99.90;;;;;;5087937;28;20613;-83
2022/07/05 00:05:55;;;;;;;3.78;2.65;;;13.50;99.90;;;;;;5090099;28;20376;-83
2022/07/05 00:08:20;;;;;;;3.03;2.70;;;13.50;99.90;;;;;;5088775;28;20536;-83
2022/07/05 00:10:47;;;;;;;4.45;3.00;;;13.50;99.90;;;;;;5088575;28;21023;-82
2022/07/05 00:13:13;;;;;;;4.25;2.90;;;13.60;99.90;;;;;;5088146;28;20396;-82
2022/07/05 00:15:41;;;;;;;3.90;3.10;;;13.50;99.90;;;;;;5088635;28;20376;-83
2022/07/05 00:18:07;;;;;;;3.75;3.10;;;13.50;99.90;;;;;;5089256;28;20719;-84
2022/07/05 00:20:32;;;;;;;4.03;2.65;;;13.50;99.90;;;;;;5089672;28;20364;-84
2022/07/05 00:22:58;;;;;;;3.60;2.90;;;13.40;99.90;;;;;;5071288;28;20382;-83
2022/07/05 00:25:24;;;;;;;4.23;3.30;;;13.20;99.90;;;;;;5067975;28;20379;-82
2022/07/05 00:27:49;;;;;;;4.55;3.10;;;13.10;99.90;;;;;;5069623;28;20409;-83
2022/07/05 00:30:15;;;;;;;4.03;3.27;;;13.30;99.90;;;;;;5069855;28;20382;-83
2022/07/05 00:32:41;;;;;;;3.13;2.80;;;13.20;99.90;;;;;;5069174;28;20875;-83
2022/07/05 00:35:08;;;;;;;4.90;3.20;;;13.10;99.90;;;;;;5068825;28;20439;-82
2022/07/05 00:37:34;;;;;;;3.58;3.10;;;13.10;99.90;;;;;;5082569;28;20887;-83
2022/07/05 00:40:00;;;;;;;3.88;3.20;;;13.00;99.90;;;;;;5068137;28;20894;-83
2022/07/05 00:42:26;;;;;;;4.73;3.30;;;13.00;99.90;;;;;;5067596;28;20397;-83
2022/07/05 00:44:52;;;;;;;3.97;3.00;;;13.00;99.90;;;;;;5068061;28;20385;-83
2022/07/05 00:47:18;;;;;;;3.45;3.13;;;13.00;99.90;;;;;;5082901;28;20921;-83
2022/07/05 00:49:44;;;;;;;3.63;2.92;;;12.90;99.90;;;;;;5089354;28;20377;-84
2022/07/05 00:52:11;;;;;;;4.50;2.90;;;12.90;99.90;;;;;;5087465;28;20395;-83
2022/07/05 00:54:38;;;;;;;3.67;3.15;;;12.90;99.90;;;;;;5089438;28;20376;-83
2022/07/05 00:57:04;;;;;;;4.57;3.20;;;12.90;99.90;;;;;;5088682;28;20900;-83
2022/07/05 00:59:31;;;;;;;4.57;3.20;;;12.90;99.90;;;;;;5088271;28;20716;-82
2022/07/05 01:01:57;;;;;;;3.50;3.20;;;12.90;99.90;;;;;;5088759;28;20380;-83
2022/07/05 01:04:24;;;;;;;3.50;3.17;;;12.90;99.90;;;;;;5087773;28;20964;-83
2022/07/05 01:06:51;;;;;;;3.95;3.17;;;12.80;99.90;;;;;;5077604;28;20401;-82
2022/07/05 01:09:18;;;;;;;3.97;2.92;;;12.80;99.90;;;;;;5067757;28;20409;-83
2022/07/05 01:11:45;;;;;;;3.28;2.97;;;12.80;99.90;;;;;;5068357;28;20401;-83
2022/07/05 01:14:18;;;;;;;4.78;3.22;;;12.80;99.90;;;;;;5068776;28;20370;-83
2022/07/05 01:16:44;;;;;;;3.78;3.25;;;12.80;99.90;;;;;;5074028;28;20444;-82
2022/07/05 01:19:14;;;;;;;3.78;3.10;;;12.70;99.90;;;;;;5076820;28;20386;-82
2022/07/05 01:21:43;;;;;;;4.18;3.28;;;12.70;99.90;;;;;;5075313;28;20378;-83
2022/07/05 01:24:10;;;;;;;3.55;3.00;;;12.80;99.90;;;;;;5068303;28;20904;-82
2022/07/05 01:26:38;;;;;;;4.43;3.17;;;12.80;99.90;;;;;;5068384;28;20396;-83
2022/07/05 01:29:04;;;;;;;3.75;3.30;;;12.80;99.90;;;;;;5066961;28;20402;-83
2022/07/05 01:31:30;;;;;;;3.15;2.85;;;12.70;99.90;;;;;;5068745;28;20398;-83
2022/07/05 01:33:55;;;;;;;5.00;3.17;;;12.70;99.90;;;;;;5067508;28;20397;-83
2022/07/05 01:36:21;;;;;;;3.93;3.00;;;12.70;99.90;;;;;;5068700;28;20877;-82
2022/07/05 01:38:47;;;;;;;3.60;3.10;;;12.60;99.90;;;;;;5085786;28;20493;-83
2022/07/05 01:41:13;;;;;;;3.43;2.90;;;12.60;99.90;;;;;;5088527;28;20496;-83
2022/07/05 01:43:39;;;;;;;5.50;3.22;;;12.50;99.90;;;;;;5088649;28;20448;-83
2022/07/05 01:46:05;;;;;;;3.97;3.10;;;12.50;99.90;;;;;;5073722;28;20806;-83
2022/07/05 01:48:34;;;;;;;4.35;3.53;;;12.50;99.90;;;;;;5066981;28;20409;-83
2022/07/05 01:51:05;;;;;;;4.07;3.22;;;12.50;99.90;;;;;;5068481;28;20381;-83
2022/07/05 01:53:32;;;;;;;3.50;2.70;;;12.50;99.90;;;;;;5068691;28;20374;-83
2022/07/05 01:56:02;;;;;;;3.25;2.72;;;12.50;99.90;;;;;;5079057;28;20559;-82
2022/07/05 01:58:30;;;;;;;2.80;2.60;;;12.40;99.90;;;;;;5088403;28;20384;-83
2022/07/05 02:00:56;;;;;;;3.10;2.80;;;12.40;99.90;;;;;;5086334;28;20379;-83
2022/07/05 02:03:22;;;;;;;4.28;2.88;;;12.30;99.90;;;;;;5091657;28;20479;-84
2022/07/05 02:05:49;;;;;;;3.55;3.25;;;12.40;99.90;;;;;;5076629;28;20426;-84
2022/07/05 02:08:16;;;;;;;3.57;3.17;;;12.40;99.90;;;;;;5072160;28;20398;-82
2022/07/05 02:10:43;;;;;;;3.50;3.20;;;12.40;99.90;;;;;;5070492;28;20385;-83
2022/07/05 02:13:10;;;;;;;26.63;5.35;;;12.40;99.90;;;;;;5070403;28;20473;-82
2022/07/05 02:15:38;;;;;;;15.65;4.30;;;12.40;99.90;;;;;;5084833;28;20392;-83
2022/07/05 02:18:06;;;;;;;19.67;4.63;;;12.40;99.90;;;;;;5092114;28;20365;-82
2022/07/05 02:20:33;;;;;;;11.23;3.63;;;12.40;99.90;;;;;;5091872;28;20381;-83
2022/07/05 02:22:59;;;;;;;9.15;3.80;;;12.50;99.90;;;;;;5090858;28;20380;-83
2022/07/05 02:25:25;;;;;;;8.10;3.58;;;12.50;99.90;;;;;;5078269;28;20449;-83
2022/07/05 02:27:54;;;;;;;6.25;3.20;;;12.50;99.90;;;;;;5071661;28;20405;-83
2022/07/05 02:30:20;;;;;;;6.20;3.35;;;12.50;99.90;;;;;;5071466;28;20385;-83
2022/07/05 02:32:47;;;;;;;9.65;3.28;;;12.30;99.90;;;;;;5071336;28;20366;-83
2022/07/05 02:35:13;;;;;;;6.45;3.30;;;12.30;99.90;;;;;;5082345;28;20395;-83
2022/07/05 02:37:39;;;;;;;8.60;3.20;;;12.30;99.90;;;;;;5090030;28;20376;-84
2022/07/05 02:40:12;;;;;;;9.07;3.72;;;12.20;99.90;;;;;;5090337;28;20380;-82
2022/07/05 02:42:39;;;;;;;14.55;4.13;;;12.20;99.90;;;;;;5075388;28;20987;-82
2022/07/05 02:45:06;;;;;;;17.08;4.32;;;12.20;99.90;;;;;;5070149;28;20408;-83
2022/07/05 02:47:33;;;;;;;8.50;3.78;;;12.20;99.90;;;;;;5069915;28;20410;-82
2022/07/05 02:50:02;;;;;;;10.10;3.88;;;12.20;99.90;;;;;;5077715;28;20384;-82
2022/07/05 02:52:28;;;;;;;8.43;3.53;;;12.20;99.90;;;;;;5089626;28;20377;-82
2022/07/05 02:54:54;;;;;;;6.90;3.93;;;12.30;99.90;;;;;;5090587;28;20400;-82
2022/07/05 02:57:20;;;;;;;8.35;3.45;;;12.30;99.90;;;;;;5089959;28;20402;-82
2022/07/05 02:59:45;;;;;;;3.90;3.33;;;12.30;99.90;;;;;;5075565;28;20732;-82
2022/07/05 03:02:11;;;;;;;4.80;3.23;;;12.20;99.90;;;;;;5071466;28;20408;-83
2022/07/05 03:04:36;;;;;;;4.50;3.50;;;12.30;99.90;;;;;;5071639;28;20864;-83
2022/07/05 03:07:02;;;;;;;3.83;3.30;;;12.40;99.90;;;;;;5069649;28;20382;-83
2022/07/05 03:09:28;;;;;;;4.40;3.42;;;12.30;99.90;;;;;;5091113;28;20394;-82
2022/07/05 03:11:53;;;;;;;3.60;3.30;;;12.30;99.90;;;;;;5110955;28;20367;-82
2022/07/05 03:14:20;;;;;;;4.93;3.47;;;12.20;99.90;;;;;;5096424;28;20467;-82
2022/07/05 03:16:45;;;;;;;3.60;3.30;;;12.20;99.90;;;;;;5089908;28;20399;-82
2022/07/05 03:19:11;;;;;;;4.43;3.37;;;12.20;99.90;;;;;;5081233;28;20460;-83
2022/07/05 03:21:37;;;;;;;4.82;3.35;;;12.30;99.90;;;;;;5070241;28;20378;-82
2022/07/05 03:24:03;;;;;;;4.95;3.05;;;12.30;99.90;;;;;;5070682;28;20382;-83
2022/07/05 03:26:28;;;;;;;3.55;3.13;;;12.30;99.90;;;;;;5070477;28;20468;-83
2022/07/05 03:28:54;;;;;;;3.87;3.30;;;12.40;99.90;;;;;;5082145;28;20427;-82
2022/07/05 03:31:20;;;;;;;4.15;3.00;;;12.40;99.90;;;;;;5090383;28;20455;-82
2022/07/05 03:33:46;;;;;;;3.33;3.03;;;12.50;99.90;;;;;;5090538;28;20456;-83
2022/07/05 03:36:12;;;;;;;21.33;5.63;;;12.50;99.90;;;;;;5089479;28;20433;-83
2022/07/05 03:38:37;;;;;;;6.38;3.75;;;12.50;99.90;;;;;;5079942;28;20403;-82
2022/07/05 03:41:03;;;;;;;4.90;3.50;;;12.50;99.90;;;;;;5070104;28;20382;-82
2022/07/05 03:43:29;;;;;;;4.68;3.15;;;12.60;99.90;;;;;;5069998;28;20409;-83
2022/07/05 03:45:55;;;;;;;3.90;3.23;;;12.70;99.90;;;;;;5070134;28;20378;-82
2022/07/05 03:48:21;;;;;;;4.63;3.30;;;12.70;99.90;;;;;;5076602;28;20404;-82
2022/07/05 03:50:47;;;;;;;3.35;3.03;;;12.90;99.90;;;;;;5090156;28;20395;-82
2022/07/05 03:53:13;;;;;;;3.90;3.05;;;13.10;99.90;;;;;;5090085;28;20377;-83
2022/07/05 03:55:38;;;;;;;4.73;3.03;;;13.10;99.90;;;;;;5090379;28;20449;-82
2022/07/05 03:58:04;;;;;;;3.83;3.07;;;13.10;99.90;;;;;;5080426;28;20402;-82
2022/07/05 04:00:30;;;;;;;3.35;2.97;;;13.20;99.90;;;;;;5069806;28;20449;-82
2022/07/05 04:02:55;;;;;;;4.57;3.30;;;13.30;99.90;;;;;;5069966;28;20370;-82
2022/07/05 04:05:22;;;;;;;4.40;3.17;;;13.30;99.90;;;;;;5069719;28;20370;-82
2022/07/05 04:07:56;;;;;;;4.18;3.70;;;13.40;99.90;;;;;;5076065;28;20413;-83
2022/07/05 04:10:22;;;;;;;6.60;3.70;;;13.50;99.90;;;;;;5088682;28;20742;-84
2022/07/05 04:12:48;;;;;;;3.60;3.30;;;13.60;99.90;;;;;;5087824;28;20432;-83
2022/07/05 04:15:14;;;;;;;3.73;3.43;;;13.60;99.90;;;;;;5088322;28;20476;-83
2022/07/05 04:17:51;;;;;;;3.78;3.20;;;13.60;99.90;;;;;;5069528;28;20437;-83
2022/07/05 04:20:17;;;;;;;3.47;3.17;;;13.70;99.90;;;;;;5068377;28;20473;-82
2022/07/05 04:22:43;;;;;;;5.03;3.30;;;13.90;99.90;;;;;;5069441;28;20400;-83
2022/07/05 04:25:16;;;;;;;5.00;3.58;;;14.00;99.90;;;;;;5086559;28;20427;-83
2022/07/05 04:27:49;;;;;;;4.00;3.47;;;14.10;99.90;;;;;;5089180;28;20407;-82
2022/07/05 04:30:15;;;;;;;4.05;3.33;;;14.20;99.90;;;;;;5088179;28;20472;-83
2022/07/05 04:32:42;;;;;;;5.40;3.58;;;14.30;99.90;;;;;;5078511;28;20454;-83
2022/07/05 04:35:08;;;;;;;4.30;3.30;;;14.40;99.90;;;;;;5069416;28;20366;-82
2022/07/05 04:37:34;;;;;;;3.92;3.10;;;14.70;99.90;;;;;;5069210;28;20370;-83
2022/07/05 04:40:00;;;;;;;5.43;3.10;;;14.80;99.90;;;;;;5067893;28;20531;-84
2022/07/05 04:42:25;;;;;;;3.88;2.90;;;15.10;99.90;;;;;;5079163;28;21189;-83
2022/07/05 04:44:51;;;;;;;4.43;3.00;;;15.20;99.90;;;;;;5089212;28;20392;-83
2022/07/05 04:47:16;;;;;;;4.15;2.60;;;15.40;99.90;;;;;;5087913;28;20601;-84
2022/07/05 04:49:42;;;;;;;4.10;2.83;;;15.70;99.90;;;;;;5087942;28;20373;-83
2022/07/05 04:52:08;;;;;;;3.72;2.60;;;16.00;99.90;;;;;;5070708;28;20756;-83
2022/07/05 04:54:34;;;;;;;3.40;2.20;;;16.40;99.90;;;;;;5069044;28;20367;-82
2022/07/05 04:57:00;;;;;;;4.45;2.65;;;16.70;99.90;;;;;;5069785;28;20378;-83
2022/07/05 04:59:26;;;;;;;8.60;3.30;;;16.90;99.90;;;;;;5068718;28;20389;-83
2022/07/05 05:01:51;;;;;;;7.03;2.80;;;17.10;99.90;;;;;;5085828;28;20376;-83
2022/07/05 05:04:17;;;;;;;2.90;2.20;;;17.40;99.90;;;;;;5075824;28;20741;-83
2022/07/05 05:06:42;;;;;;;4.75;2.30;;;17.90;99.90;;;;;;5067698;28;20462;-84
2022/07/05 05:09:08;;;;;;;3.53;1.73;;;18.30;99.90;;;;;;5067610;28;20402;-83
2022/07/05 05:11:33;;;;;;;6.03;2.00;;;18.70;99.90;;;;;;5080781;28;20400;-84
2022/07/05 05:13:59;;;;;;;13.98;2.72;;;18.90;99.90;;;;;;5089002;28;20520;-84
2022/07/05 05:16:25;;;;;;;4.33;1.83;;;19.10;99.90;;;;;;5088355;28;21099;-84
2022/07/05 05:18:50;;;;;;;3.05;1.67;;;19.30;99.90;;;;;;5087782;28;20463;-83
2022/07/05 05:21:16;;;;;;;4.77;2.13;;;19.40;99.90;;;;;;5076582;28;20787;-83
2022/07/05 05:23:42;;;;;;;5.47;1.90;;;19.70;99.90;;;;;;5086563;28;20388;-83
2022/07/05 05:26:07;;;;;;;2.77;1.87;;;19.80;99.90;;;;;;5078341;28;20386;-84
2022/07/05 05:28:33;;;;;;;3.53;1.83;;;19.90;99.90;;;;;;5073165;28;20395;-83
2022/07/05 05:30:59;;;;;;;3.53;1.57;;;20.00;99.90;;;;;;5085519;28;20392;-83
2022/07/05 05:33:25;;;;;;;2.55;1.35;;;20.20;99.90;;;;;;5088593;28;20384;-83
2022/07/05 05:35:50;;;;;;;4.03;1.90;;;20.20;99.90;;;;;;5089285;28;20383;-82
2022/07/05 05:38:16;;;;;;;3.40;1.63;;;19.80;99.90;;;;;;5090662;28;20377;-82
2022/07/05 05:40:44;;;;;;;6.67;1.90;;;19.70;99.90;;;;;;5077019;28;20787;-83
2022/07/05 05:43:10;;;;;;;2.47;1.70;;;19.70;99.90;;;;;;5071078;28;20751;-83
2022/07/05 05:45:36;;;;;;;3.55;1.90;;;19.60;99.90;;;;;;5072489;28;20926;-83
2022/07/05 05:48:02;;;;;;;2.97;1.50;;;19.70;99.90;;;;;;5073239;28;20398;-83
2022/07/05 05:50:35;;;;;;;2.63;1.63;;;19.80;99.90;;;;;;5083866;28;20426;-83
2022/07/05 05:53:01;;;;;;;2.90;1.75;;;19.80;99.90;;;;;;5091560;28;20383;-83
2022/07/05 05:55:29;;;;;;;2.95;1.63;;;19.80;99.90;;;;;;5092133;28;20495;-83
2022/07/05 05:57:55;;;;;;;3.47;1.60;;;19.70;99.90;;;;;;5087043;28;20868;-83
2022/07/05 06:00:22;;;;;;;4.63;1.92;;;19.80;99.90;;;;;;5072075;28;20362;-84
2022/07/05 06:02:49;;;;;;;12.38;2.25;;;19.90;99.90;;;;;;5072404;28;20392;-82
2022/07/05 06:05:15;;;;;;;2.97;1.52;;;20.00;99.90;;;;;;5078495;28;20388;-82
2022/07/05 06:07:51;;;;;;;2.85;1.60;;;20.00;99.90;;;;;;5090883;28;20404;-83
2022/07/05 06:10:27;;;;;;;8.82;1.88;;;20.00;99.90;;;;;;5090558;28;20381;-83
2022/07/05 06:12:56;;;;;;;4.60;1.50;;;20.10;99.90;;;;;;5086644;28;20382;-83
2022/07/05 06:15:22;;;;;;;3.77;1.67;;;20.10;99.90;;;;;;5071375;28;20390;-82
2022/07/05 06:17:48;;;;;;;2.90;1.63;;;20.40;99.90;;;;;;5070559;28;20376;-83
2022/07/05 06:20:16;;;;;;;3.03;1.50;;;;;;;;;;5072227;28;20366;-83
2022/07/05 06:22:43;;;;;;;3.03;1.60;;;;;;;;;;5076280;28;20431;-81
2022/07/05 06:25:09;;;;;;;5.82;1.98;;;;;;;;;;5090924;28;20374;-81
2022/07/05 06:27:42;;;;;;;14.70;3.28;;;;;;;;;;5091785;28;20411;-81
2022/07/05 06:30:09;;;;;;;2.83;1.77;;;;;;;;;;5088216;28;20435;-80
2022/07/05 06:32:35;;;;;;;4.18;1.80;;;;;;;;;;5090678;28;20443;-84
2022/07/05 06:35:01;;;;;;;3.07;1.90;;;;;;;;;;5109019;28;20370;-82
2022/07/05 06:37:27;;;;;;;5.50;2.03;;;;;;;;;;5112356;28;20362;-81
2022/07/05 06:39:53;;;;;;;2.42;1.90;;;;;;;;;;5104330;28;20870;-82
2022/07/05 06:42:20;;;;;;;2.53;1.63;;;;;;;;;;5086198;28;20863;-83
2022/07/05 06:44:46;;;;;;;2.92;1.80;;;;;;;;;;5070077;28;20394;-83
2022/07/05 06:47:12;;;;;;;2.88;1.75;;;;;;;;;;5071434;28;20389;-83
2022/07/05 06:49:37;;;;;;;4.00;1.65;;;21.30;99.90;;;;;;5075212;28;20380;-83
2022/07/05 06:52:03;;;;;;;2.23;1.53;;;21.40;99.90;;;;;;5091394;28;20377;-83
2022/07/05 06:54:30;;;;;;;2.40;1.50;;;;;;;;;;5091072;28;20379;-84
2022/07/05 06:57:00;;;;;;;2.50;1.67;;;;;;;;;;5086514;28;20401;-82
2022/07/05 06:59:28;;;;;;;4.15;1.73;;;;;;;;;;5070976;28;20459;-83
2022/07/05 07:01:53;;;;;;;3.63;1.63;;;22.40;99.90;;;;;;5088687;28;20412;-84
2022/07/05 07:04:21;;;;;;;3.53;1.63;;;;;;;;;;5089776;28;20980;-84
2022/07/05 07:06:47;;;;;;;2.90;1.60;;;;;;;;;;5085072;28;20762;-84
2022/07/05 07:09:21;;;;;;;3.43;1.60;;;;;;;;;;5069170;28;20420;-84
2022/07/05 07:11:48;;;;;;;3.00;1.60;;;;;;;;;;5069055;28;20421;-84
2022/07/05 07:14:14;;;;;;;2.72;1.35;;;;;;;;;;5069220;28;20366;-83
2022/07/05 07:16:40;;;;;;;2.40;1.30;;;23.90;99.90;;;;;;5070135;28;20477;-83
2022/07/05 07:19:06;;;;;;;1.80;1.30;;;24.00;99.90;;;;;;5091204;28;20459;-83
2022/07/05 07:21:32;;;;;;;2.53;1.60;;;;;;;;;;5091300;28;20381;-83
2022/07/05 07:23:57;;;;;;;2.65;1.30;;;24.20;99.90;;;;;;5089486;28;20387;-82
2022/07/05 07:26:23;;;;;;;3.20;1.40;;;23.80;95.70;;;;;;5087015;28;20469;-82
2022/07/05 07:28:48;;;;;;;3.72;1.27;;;23.40;99.90;;;;;;5103403;28;20425;-83
2022/07/05 07:31:14;;;;;;;3.43;1.33;;;23.00;99.90;;;;;;5070467;28;20398;-84
2022/07/05 07:33:40;;;;;;;5.25;1.38;;;23.00;99.90;;;;;;5070596;28;20390;-84
2022/07/05 07:36:05;;;;;;;2.67;1.60;;;23.20;99.90;;;;;;5070731;28;20374;-84
2022/07/05 07:38:31;;;;;;;3.07;1.50;;;23.30;99.90;;;;;;5091032;28;20377;-85
2022/07/05 07:40:57;;;;;;;2.20;1.40;;;23.40;99.90;;;;;;5088175;28;20402;-85
2022/07/05 07:43:23;;;;;;;3.58;1.50;;;23.50;99.90;;;;;;5070849;28;20436;-84
2022/07/05 07:45:48;;;;;;;3.65;1.30;;;23.70;99.90;;;;;;5076018;28;20461;-83
2022/07/05 07:48:14;;;;;;;3.43;1.33;;;24.00;99.90;;;;;;5083516;28;20466;-82
2022/07/05 07:50:40;;;;;;;2.22;1.50;;;23.80;99.90;;;;;;5086226;28;20513;-83
2022/07/05 07:53:05;;;;;;;2.97;1.50;;;23.20;99.90;;;;;;5069279;28;20377;-84
2022/07/05 07:55:31;;;;;;;2.13;1.45;;;23.00;99.90;;;;;;5068879;28;20386;-82
2022/07/05 07:57:57;;;;;;;5.03;1.73;;;22.60;99.90;;;;;;5068810;28;20370;-83
2022/07/05 08:00:23;;;;;;;2.73;1.27;;;22.30;99.90;;;;;;5068545;28;20401;-83
2022/07/05 08:02:48;;;;;;;3.08;1.33;;;22.50;99.90;;;;;;5067983;28;20375;-83
2022/07/05 08:05:14;;;;;;;3.80;1.30;;;22.70;99.90;;;;;;5088730;28;20380;-84
2022/07/05 08:07:40;;;;;;;2.70;1.30;;;23.20;99.90;;;;;;5089257;28;20401;-85
2022/07/05 08:10:06;;;;;;;2.23;1.30;;;23.40;99.90;;;;;;5091511;28;20733;-83
2022/07/05 08:12:32;;;;;;;3.33;1.20;;;23.60;99.90;;;;;;5090661;28;20487;-83
2022/07/05 08:14:57;;;;;;;3.70;1.50;;;23.20;99.90;;;;;;5090978;28;20464;-82
2022/07/05 08:17:23;;;;;;;1.83;1.30;;;23.00;99.90;;;;;;5090125;28;20365;-82
2022/07/05 08:22:33;;;;;;;2.95;1.38;;;23.20;99.90;;;;;;5090785;28;20371;-83
2022/07/05 08:24:59;;;;;;;3.22;1.40;;;23.40;99.90;;;;;;5089473;28;20407;-84
2022/07/05 08:27:25;;;;;;;3.07;1.30;;;23.60;98.00;;;;;;5103080;28;20833;-82
2022/07/05 08:29:50;;;;;;;3.50;1.40;;;24.00;96.70;;;;;;5090273;28;20381;-84
2022/07/05 08:32:17;;;;;;;3.72;1.50;;;24.10;97.50;;;;;;5081659;28;20404;-84
2022/07/05 08:34:43;;;;;;;2.83;1.20;;;24.20;95.30;;;;;;5101491;28;20404;-84
2022/07/05 08:37:09;;;;;;;7.47;1.50;;;24.10;97.30;;;;;;5088959;28;20377;-84
2022/07/05 08:39:36;;;;;;;3.70;1.30;;;24.10;96.20;;;;;;5089119;28;20728;-83
2022/07/05 08:42:03;;;;;;;2.30;1.20;;;24.00;95.90;;;;;;5088771;28;20422;-83
2022/07/05 08:44:32;;;;;;;3.60;1.50;;;23.70;94.60;;;;;;5089637;28;20479;-83
2022/07/05 08:47:01;;;;;;;3.35;1.23;;;23.70;95.30;;;;;;5090788;28;20422;-83
2022/07/05 08:49:30;;;;;;;2.05;1.20;;;23.80;95.40;;;;;;5090060;28;20396;-84
2022/07/05 08:52:03;;;;;;;4.77;1.53;;;24.00;95.50;;;;;;5090542;28;20861;-85
2022/07/05 08:54:31;;;;;;;2.97;1.27;;;24.30;95.80;;;;;;5089298;28;20765;-83
2022/07/05 08:56:57;;;;;;;3.08;1.52;;;24.60;94.70;;;;;;5089478;28;20423;-84
2022/07/05 08:59:23;;;;;;;3.73;1.30;;;24.80;94.20;;;;;;5089847;28;20400;-84
2022/07/05 09:01:49;;;;;;;4.57;1.55;;;24.80;94.00;;;;;;5088803;28;20384;-84
2022/07/05 09:04:17;;;;;;;5.20;1.40;;;24.70;95.00;;;;;;5090751;28;20801;-85
2022/07/05 09:06:46;;;;;;;4.53;1.40;;;24.90;95.80;;;;;;5088457;28;20376;-85
2022/07/05 09:09:16;;;;;;;2.40;1.55;;;25.10;96.90;;;;;;5089790;28;20518;-85
2022/07/05 09:11:44;;;;;;;2.85;1.60;;;;;;;;;;5087768;28;20415;-84
2022/07/05 09:14:33;;;;;;;3.40;1.43;;;;;;;;;;5089958;28;20742;-85
2022/07/05 09:16:59;;;;;;;4.03;1.50;;;;;;;;;;5088800;28;20433;-83
2022/07/05 09:19:25;;;;;;;3.20;1.40;;;25.00;99.90;;;;;;5088220;28;20396;-84
2022/07/05 09:22:03;;;;;;;3.33;1.52;;;;;;;;;;5089527;28;20877;-86
2022/07/05 09:24:31;;;;;;;5.75;1.25;;;;;;;;;;5090000;28;20356;-85
2022/07/05 09:27:03;;;;;;;3.97;1.55;;;24.80;99.90;;;;;;5088298;28;20384;-84
2022/07/05 09:29:29;;;;;;;4.47;1.45;;;25.20;93.40;;;;;;5089794;28;20827;-85
2022/07/05 09:31:55;;;;;;;6.47;1.60;;;25.20;92.50;;;;;;5090193;28;20388;-84
2022/07/05 09:34:24;;;;;;;2.53;1.30;;;25.30;94.00;;;;;;5088286;28;20552;-85
2022/07/05 09:37:01;;;;;;;4.72;1.40;;;;;;;;;;5087553;28;20387;-86
2022/07/05 09:39:30;;;;;;;3.78;1.45;;;;;;;;;;5089521;28;20376;-84
2022/07/05 09:42:25;;;;;;;4.53;1.60;;;25.60;92.50;;;;;;5089829;28;20383;-85
2022/07/05 09:44:52;;;;;;;4.50;1.40;;;25.80;93.70;;;;;;5089584;28;20724;-84
2022/07/05 09:47:28;;;;;;;4.18;1.30;;;26.00;91.80;;;;;;5089736;28;20384;-84
2022/07/05 09:50:06;;;;;;;3.72;1.40;;;25.90;91.20;;;;;;5090216;28;20372;-85
2022/07/05 09:52:39;;;;;;;2.53;1.20;;;;;;;;;;5085782;28;20478;-85
2022/07/05 09:55:10;;;;;;;4.57;1.35;;;25.50;91.10;;;;;;5090000;28;20364;-85
2022/07/05 09:57:39;;;;;;;3.70;1.38;;;25.10;91.40;;;;;;5089287;28;20388;-84
2022/07/05 10:00:14;;;;;;;3.22;1.58;;;25.10;92.70;;;;;;5088218;28;20890;-85
2022/07/05 10:02:44;;;;;;;2.57;1.50;;;25.40;94.40;;;;;;5087890;28;20415;-86
2022/07/05 10:05:21;;;;;;;4.22;1.60;;;25.80;92.70;;;;;;5089788;28;20379;-84
2022/07/05 10:07:49;;;;;;;3.87;1.50;;;25.90;92.90;;;;;;5089225;28;20425;-84
2022/07/05 10:10:19;;;;;;;3.58;1.52;;;26.00;91.60;;;;;;5088589;28;20377;-84
2022/07/05 10:12:48;;;;;;;4.22;1.65;;;26.50;91.10;;;;;;5089327;28;20781;-84
2022/07/05 10:15:15;;;;;;;2.15;1.00;;;;;;;;;;5088319;28;20399;-83
2022/07/05 10:17:46;;;;;;;4.20;1.60;;;26.50;99.90;;;;;;5089658;28;20406;-84
2022/07/05 10:20:31;;;;;;;2.35;1.30;;;;;;;;;;5088200;28;20421;-85
2022/07/05 10:23:05;;;;;;;3.80;1.30;;;26.20;91.60;;;;;;5091127;28;20471;-84
2022/07/05 10:25:31;;;;;;;2.88;1.45;;;26.10;91.50;;;;;;5093182;28;20368;-83
2022/07/05 10:28:00;;;;;;;3.30;1.75;;;25.90;98.00;;;;;;5094389;28;20403;-84
2022/07/05 10:30:27;;;;;;;3.22;1.50;;;;;;;;;;5094014;28;20364;-83
2022/07/05 10:32:54;;;;;;;3.20;1.52;;;25.00;90.50;;;;;;5091513;28;20562;-84
2022/07/05 10:35:21;;;;;;;3.30;1.27;;;24.60;91.60;;;;;;5091337;28;20471;-84
2022/07/05 10:37:47;;;;;;;3.42;1.65;;;24.60;92.70;;;;;;5092732;28;20379;-83
2022/07/05 10:40:14;;;;;;;4.60;1.92;;;24.60;92.90;;;;;;5095169;28;20390;-85
2022/07/05 10:42:57;;;;;;;5.57;1.53;;;24.40;92.30;;;;;;5102230;28;20383;-84
2022/07/05 10:45:39;;;;;;;2.42;1.50;;;24.60;93.40;;;;;;5101996;28;20379;-85
2022/07/05 10:48:18;;;;;;;5.73;1.60;;;25.10;91.80;;;;;;5101978;28;20414;-84
2022/07/05 10:50:50;;;;;;;4.43;1.65;;;25.00;91.20;;;;;;5099994;28;20390;-85
2022/07/05 10:53:36;;;;;;;6.53;1.50;;;25.00;92.90;;;;;;5102174;28;20382;-84
2022/07/05 10:56:05;;;;;;;3.50;1.27;;;25.40;99.90;;;;;;5085315;28;20432;-83
2022/07/05 10:58:37;;;;;;;2.28;1.40;;;25.50;94.90;;;;;;5112269;28;20383;-83
2022/07/05 11:01:12;;;;;;;4.28;1.40;;;25.50;94.00;;;;;;5103337;28;20384;-85
2022/07/05 11:03:40;;;;;;;2.25;1.30;;;25.50;91.80;;;;;;5108566;28;20455;-83
2022/07/05 11:06:07;;;;;;;3.50;1.23;;;25.30;91.10;;;;;;5095876;28;20408;-85
2022/07/05 11:08:52;;;;;;;3.45;1.50;;;;;;;;;;5101777;28;20445;-83
2022/07/05 11:11:30;;;;;;;5.82;1.75;;;26.00;91.30;;;;;;5105390;28;20364;-83
2022/07/05 11:14:00;;;;;;;2.50;1.60;;;26.20;90.90;;;;;;5105374;28;20370;-83
2022/07/05 11:16:30;;;;;;;3.83;1.55;;;25.80;87.90;;;;;;5103573;28;20870;-82
2022/07/05 11:19:10;;;;;;;4.65;1.48;;;25.20;87.60;;;;;;5111746;28;20440;-82
2022/07/05 11:21:57;;;;;;;3.30;1.35;;;24.80;90.50;;;;;;5094927;28;20719;-85
2022/07/05 11:24:25;;;;;;;6.82;1.73;;;24.90;91.60;;;;;;5102247;28;20381;-84
2022/07/05 11:26:53;;;;;;;3.55;1.50;;;25.20;92.20;;;;;;5106578;28;20412;-83
2022/07/05 11:29:44;;;;;;;6.25;1.60;;;25.50;90.00;;;;;;5112067;28;20486;-83
2022/07/05 11:32:11;;;;;;;3.60;1.40;;;25.40;88.70;;;;;;5112388;27;20381;-86
2022/07/05 11:34:37;;;;;;;3.70;1.50;;;25.20;90.90;;;;;;5111705;28;20382;-84
2022/07/05 11:37:28;;;;;;;3.23;1.47;;;25.00;89.80;;;;;;5111196;28;20694;-84
2022/07/05 11:40:11;;;;;;;6.70;1.70;;;25.10;90.80;;;;;;5094618;28;20439;-84
2022/07/05 11:42:50;;;;;;;5.60;1.90;;;;;;;;;;5091309;28;20372;-83
2022/07/05 11:45:17;;;;;;;7.80;1.80;;;;;;;;;;5091154;28;20382;-85
2022/07/05 11:47:43;;;;;;;4.65;1.60;;;;;;;;;;5090008;28;20443;-85
2022/07/05 11:50:10;;;;;;;4.40;1.67;;;;;;;;;;5091440;28;20376;-84
2022/07/05 11:52:36;;;;;;;4.10;1.58;;;;;;;;;;5089306;28;20468;-84
2022/07/05 11:55:06;;;;;;;4.53;1.87;;;;;;;;;;5088834;28;20398;-84
2022/07/05 11:57:32;;;;;;;5.05;1.70;;;;;;;;;;5090015;28;20838;-84
2022/07/05 11:59:59;;;;;;;5.43;1.45;;;;;;;;;;5089131;28;20851;-85
2022/07/05 12:02:25;;;;;;;4.18;1.60;;;;;;;;;;5090236;28;20874;-86
2022/07/05 12:04:52;;;;;;;4.50;1.40;;;;;;;;;;5089662;28;20454;-85
2022/07/05 12:07:27;;;;;;;3.85;1.55;;;;;;;;;;5089096;28;20400;-84
2022/07/05 12:12:43;;;;;;;3.33;1.40;;;26.30;85.10;;;;;;5090121;28;20418;-84
2022/07/05 12:15:13;;;;;;;3.17;1.48;;;26.00;86.40;;;;;;5089806;28;20783;-82
2022/07/05 12:17:41;;;;;;;3.30;1.57;;;25.50;85.50;;;;;;5088625;28;20488;-84
2022/07/05 12:20:09;;;;;;;2.15;1.40;;;25.10;94.00;;;;;;5089909;28;20377;-83
2022/07/05 12:22:37;;;;;;;4.03;1.40;;;24.90;97.90;;;;;;5088949;28;20381;-83
2022/07/05 12:25:05;;;;;;;1.90;1.33;;;24.90;98.10;;;;;;5089286;28;20938;-84
2022/07/05 12:27:33;;;;;;;4.35;1.50;;;24.90;99.90;;;;;;5088237;28;20380;-85
2022/07/05 12:30:03;;;;;;;4.30;1.30;;;25.40;99.90;;;;;;5089226;28;20489;-84
2022/07/05 12:32:30;;;;;;;4.37;1.40;;;25.40;99.90;;;;;;5089339;28;20365;-85
2022/07/05 12:34:56;;;;;;;4.10;1.50;;;25.50;87.30;;;;;;5089947;28;20457;-86
2022/07/05 12:37:23;;;;;;;5.32;1.65;;;25.70;85.60;;;;;;5090252;28;20394;-84
2022/07/05 12:39:50;;;;;;;4.10;1.50;;;25.80;85.80;;;;;;5090311;28;20408;-84
2022/07/05 12:42:36;;;;;;;1.70;1.30;;;25.80;88.50;;;;;;5088471;28;20435;-85
2022/07/05 12:45:16;;;;;;;3.30;1.55;;;25.80;87.00;;;;;;5089645;28;20885;-85
2022/07/05 12:47:56;;;;;;;2.60;1.25;;;25.50;85.30;;;;;;5088478;28;20400;-82
2022/07/05 12:50:29;;;;;;;2.50;1.23;;;25.20;86.10;;;;;;5089809;28;20397;-85
2022/07/05 12:58:51;;;;;;;2.17;1.42;;;25.90;84.40;;;;;;5090803;28;20383;-84
2022/07/05 13:01:24;;;;;;;3.60;1.40;;;26.00;84.10;;;;;;5088088;28;20475;-84
2022/07/05 13:04:11;;;;;;;5.78;1.38;;;26.00;88.40;;;;;;5088299;28;20422;-82
2022/07/05 13:06:55;;;;;;;1.95;1.38;;;25.80;84.10;;;;;;5098496;28;20372;-85
2022/07/05 13:09:34;;;;;;;3.83;1.50;;;25.80;94.50;;;;;;5095002;28;20499;-85
2022/07/05 13:12:13;;;;;;;1.95;1.20;;;25.90;98.10;;;;;;5097507;28;20887;-83
2022/07/05 13:14:45;;;;;;;2.58;1.38;;;26.10;98.00;;;;;;5094293;28;20390;-85
2022/07/05 13:17:13;;;;;;;3.03;1.30;;;26.10;94.20;;;;;;5080342;28;20388;-84